createdAt,value
2018-04-27T00:01:53.787Z,25.30
2018-04-27T00:04:23.562Z,24.90
2018-04-27T00:06:53.427Z,25.30
2018-04-27T00:09:24.171Z,25.80
2018-04-27T00:11:54.449Z,26.00
2018-04-27T00:14:24.246Z,26.60
2018-04-27T00:16:55.536Z,27.50
2018-04-27T00:19:25.342Z,25.30
2018-04-27T00:21:55.046Z,26.50
2018-04-27T00:24:24.818Z,26.30
2018-04-27T00:26:54.936Z,26.70
2018-04-27T00:29:24.725Z,27.50
2018-04-27T00:31:54.532Z,27.20
2018-04-27T00:34:24.424Z,27.90
2018-04-27T00:36:54.543Z,27.60
2018-04-27T00:39:24.398Z,27.60
2018-04-27T00:41:54.274Z,27.80
2018-04-27T00:44:24.320Z,27.40
2018-04-27T00:46:54.092Z,28.30
2018-04-27T00:49:23.885Z,27.20
2018-04-27T00:51:53.748Z,27.20
2018-04-27T00:54:23.629Z,27.50
2018-04-27T00:56:53.705Z,27.10
2018-04-27T00:59:23.577Z,26.90
2018-04-27T01:01:53.320Z,27.10
2018-04-27T01:04:23.320Z,27.20
2018-04-27T01:06:53.167Z,27.00
2018-04-27T01:09:23.016Z,26.70
2018-04-27T01:11:52.815Z,25.60
2018-04-27T01:14:22.597Z,25.70
2018-04-27T01:16:53.149Z,25.40
2018-04-27T01:19:23.067Z,25.30
2018-04-27T01:21:53.026Z,24.00
2018-04-27T01:24:22.804Z,23.20
2018-04-27T01:26:52.618Z,22.40
2018-04-27T01:29:22.399Z,21.60
2018-04-27T01:31:52.512Z,21.80
2018-04-27T01:34:22.540Z,21.20
2018-04-27T01:36:53.211Z,20.30
2018-04-27T01:39:25.312Z,22.60
2018-04-27T01:41:55.254Z,21.10
2018-04-27T01:44:26.196Z,21.00
2018-04-27T01:46:56.168Z,21.20
2018-04-27T01:49:25.941Z,21.60
2018-04-27T01:51:55.773Z,22.70
2018-04-27T01:54:25.762Z,21.50
2018-04-27T01:56:55.954Z,22.50
2018-04-27T01:59:25.960Z,22.10
2018-04-27T02:01:55.949Z,22.90
2018-04-27T02:04:25.779Z,24.80
2018-04-27T02:06:55.734Z,24.00
2018-04-27T02:09:29.159Z,26.70
2018-04-27T02:11:59.138Z,27.60
2018-04-27T02:14:28.955Z,27.30
2018-04-27T02:16:59.591Z,27.30
2018-04-27T02:19:29.526Z,27.30
2018-04-27T02:22:01.228Z,28.00
2018-04-27T02:24:31.181Z,26.60
2018-04-27T02:27:00.997Z,27.10
2018-04-27T02:29:30.793Z,27.60
2018-04-27T02:32:00.590Z,27.50
2018-04-27T02:34:30.349Z,27.90
2018-04-27T02:37:00.264Z,30.50
2018-04-27T02:39:30.031Z,31.20
2018-04-27T02:42:00.172Z,34.20
2018-04-27T02:44:30.543Z,33.10
2018-04-27T02:47:00.789Z,29.70
2018-04-27T02:49:31.719Z,31.80
2018-04-27T02:52:01.544Z,29.90
2018-04-27T02:54:31.443Z,31.60
2018-04-27T02:57:02.337Z,31.70
2018-04-27T02:59:32.385Z,31.30
2018-04-27T03:02:02.316Z,32.40
2018-04-27T03:04:35.296Z,34.90
2018-04-27T03:07:06.285Z,33.30
2018-04-27T03:09:37.000Z,32.50
2018-04-27T03:12:13.071Z,35.70
2018-04-27T03:14:43.600Z,35.20
2018-04-27T03:17:13.554Z,34.80
2018-04-27T03:19:43.685Z,36.10
2018-04-27T03:22:13.587Z,38.50
2018-04-27T03:24:43.493Z,41.60
2018-04-27T03:27:13.311Z,43.40
2018-04-27T03:29:43.206Z,43.20
2018-04-27T03:32:13.207Z,40.90
2018-04-27T03:34:43.080Z,39.30
2018-04-27T03:37:14.119Z,39.00
2018-04-27T03:39:54.448Z,39.80
2018-04-27T03:42:26.968Z,39.00
2018-04-27T03:44:56.852Z,39.10
2018-04-27T03:47:26.604Z,39.10
2018-04-27T03:49:56.659Z,39.60
2018-04-27T03:52:26.477Z,40.40
2018-04-27T03:54:56.399Z,40.50
2018-04-27T03:57:26.255Z,42.40
2018-04-27T04:00:07.180Z,41.40
2018-04-27T04:02:48.766Z,41.70
2018-04-27T04:05:36.271Z,41.70
2018-04-27T04:08:06.001Z,44.70
2018-04-27T04:10:35.783Z,43.40
2018-04-27T04:13:05.658Z,43.60
2018-04-27T04:15:35.527Z,45.70
2018-04-27T04:18:05.556Z,47.70
2018-04-27T04:20:35.378Z,46.90
2018-04-27T04:23:05.902Z,50.80
2018-04-27T04:25:35.730Z,50.70
2018-04-27T04:28:05.559Z,50.50
2018-04-27T04:30:35.341Z,51.20
2018-04-27T04:33:05.113Z,51.50
2018-04-27T04:35:34.873Z,53.20
2018-04-27T04:38:04.888Z,53.50
2018-04-27T04:40:35.220Z,53.70
2018-04-27T04:43:05.120Z,54.80
2018-04-27T04:45:34.935Z,53.40
2018-04-27T04:48:05.490Z,53.30
2018-04-27T04:50:35.268Z,53.30
2018-04-27T04:53:05.087Z,54.70
2018-04-27T04:55:35.689Z,54.30
2018-04-27T04:58:05.566Z,53.80
2018-04-27T05:00:35.759Z,57.30
2018-04-27T05:03:05.588Z,56.20
2018-04-27T05:05:35.410Z,55.80
2018-04-27T05:08:05.196Z,56.60
2018-04-27T05:10:36.040Z,57.80
2018-04-27T05:13:05.847Z,57.70
2018-04-27T05:15:36.452Z,53.60
2018-04-27T05:18:23.944Z,53.60
2018-04-27T05:20:53.725Z,51.80
2018-04-27T05:23:23.628Z,49.70
2018-04-27T05:25:53.414Z,50.20
2018-04-27T05:28:23.224Z,50.00
2018-04-27T05:30:53.149Z,48.90
2018-04-27T05:33:23.004Z,49.00
2018-04-27T05:35:52.797Z,48.70
2018-04-27T05:38:22.624Z,49.30
2018-04-27T05:40:52.486Z,49.00
2018-04-27T05:43:22.273Z,49.20
2018-04-27T05:45:52.100Z,48.70
2018-04-27T05:48:21.991Z,49.20
2018-04-27T05:50:52.648Z,51.30
2018-04-27T05:53:22.599Z,51.00
2018-04-27T05:55:53.195Z,51.70
2018-04-27T05:58:23.311Z,53.80
2018-04-27T06:00:53.272Z,53.50
2018-04-27T06:03:24.068Z,55.70
2018-04-27T06:05:53.992Z,55.60
2018-04-27T06:08:23.940Z,53.80
2018-04-27T06:10:53.802Z,55.10
2018-04-27T06:13:23.630Z,54.70
2018-04-27T06:15:53.670Z,54.80
2018-04-27T06:18:23.960Z,55.30
2018-04-27T06:20:53.697Z,55.90
2018-04-27T06:23:23.475Z,57.20
2018-04-27T06:25:54.523Z,53.80
2018-04-27T06:28:24.341Z,55.60
2018-04-27T06:30:54.203Z,56.20
2018-04-27T06:33:23.974Z,58.20
2018-04-27T06:35:53.775Z,56.70
2018-04-27T06:38:23.735Z,57.50
2018-04-27T06:40:53.652Z,57.60
2018-04-27T06:43:23.633Z,57.70
2018-04-27T06:45:53.573Z,56.60
2018-04-27T06:48:23.510Z,57.20
2018-04-27T06:50:54.112Z,58.20
2018-04-27T06:53:24.070Z,57.80
2018-04-27T06:55:53.922Z,57.90
2018-04-27T06:58:23.712Z,57.40
2018-04-27T07:00:53.541Z,57.90
2018-04-27T07:03:23.347Z,57.30
2018-04-27T07:05:53.159Z,59.80
2018-04-27T07:08:23.006Z,59.20
2018-04-27T07:10:52.810Z,58.60
2018-04-27T07:13:22.636Z,58.90
2018-04-27T07:15:52.487Z,60.00
2018-04-27T07:18:22.356Z,59.20
2018-04-27T07:20:52.214Z,58.40
2018-04-27T07:23:22.099Z,57.60
2018-04-27T07:25:51.898Z,59.60
2018-04-27T07:28:21.877Z,59.40
2018-04-27T07:30:51.683Z,58.20
2018-04-27T07:33:21.568Z,59.60
2018-04-27T07:35:51.400Z,58.70
2018-04-27T07:38:21.281Z,59.00
2018-04-27T07:40:51.148Z,59.10
2018-04-27T07:43:20.982Z,58.30
2018-04-27T07:45:51.045Z,59.70
2018-04-27T07:48:21.130Z,59.30
2018-04-27T07:50:51.773Z,57.60
2018-04-27T07:53:21.584Z,57.30
2018-04-27T07:55:51.321Z,58.10
2018-04-27T07:58:21.249Z,59.30
2018-04-27T08:00:51.247Z,60.20
2018-04-27T08:03:21.281Z,61.20
2018-04-27T08:05:51.191Z,62.40
2018-04-27T08:08:21.109Z,62.80
2018-04-27T08:10:51.239Z,64.20
2018-04-27T08:13:22.370Z,64.10
2018-04-27T08:15:52.363Z,64.30
2018-04-27T08:18:22.270Z,64.60
2018-04-27T08:20:52.424Z,65.50
2018-04-27T08:23:23.260Z,66.10
2018-04-27T08:25:53.257Z,66.20
2018-04-27T08:28:23.177Z,66.70
2018-04-27T08:30:53.100Z,67.90
2018-04-27T08:33:23.116Z,68.20
2018-04-27T08:35:53.066Z,68.60
2018-04-27T08:38:22.961Z,69.30
2018-04-27T08:40:52.986Z,69.90
2018-04-27T08:43:23.609Z,70.70
2018-04-27T08:45:53.444Z,70.80
2018-04-27T08:48:23.335Z,70.50
2018-04-27T08:50:54.350Z,71.20
2018-04-27T08:53:24.446Z,71.20
2018-04-27T08:55:54.275Z,71.20
2018-04-27T08:58:24.115Z,71.60
2018-04-27T09:00:53.906Z,73.20
2018-04-27T09:03:25.084Z,72.90
2018-04-27T09:05:55.710Z,73.40
2018-04-27T09:08:25.565Z,73.40
2018-04-27T09:10:55.464Z,74.40
2018-04-27T09:13:25.351Z,74.20
2018-04-27T09:15:55.993Z,75.10
2018-04-27T09:18:26.001Z,75.00
2018-04-27T09:20:56.752Z,74.60
2018-04-27T09:23:26.576Z,74.60
2018-04-27T09:25:56.358Z,75.30
2018-04-27T09:28:26.126Z,75.10
2018-04-27T09:30:55.955Z,75.30
2018-04-27T09:33:25.694Z,75.60
2018-04-27T09:35:55.544Z,75.80
2018-04-27T09:38:25.421Z,75.80
2018-04-27T09:40:55.238Z,75.20
2018-04-27T09:43:25.898Z,76.80
2018-04-27T09:45:55.722Z,76.80
2018-04-27T09:48:26.349Z,76.90
2018-04-27T09:50:56.377Z,76.80
2018-04-27T09:53:26.986Z,75.70
2018-04-27T09:55:56.812Z,75.70
2018-04-27T09:58:26.637Z,77.00
2018-04-27T10:00:56.433Z,76.70
2018-04-27T10:03:26.299Z,78.60
2018-04-27T10:05:56.096Z,77.10
2018-04-27T10:08:25.946Z,76.30
2018-04-27T10:10:56.466Z,77.60
2018-04-27T10:13:27.084Z,76.70
2018-04-27T10:15:57.000Z,76.70
2018-04-27T10:18:26.801Z,77.30
2018-04-27T10:20:56.656Z,77.50
2018-04-27T10:23:26.631Z,77.50
2018-04-27T10:25:56.367Z,77.60
2018-04-27T10:28:26.144Z,77.90
2018-04-27T10:30:56.049Z,77.80
2018-04-27T10:33:25.773Z,78.00
2018-04-27T10:35:55.617Z,78.60
2018-04-27T10:38:25.418Z,78.10
2018-04-27T10:40:55.216Z,78.70
2018-04-27T10:43:25.054Z,78.20
2018-04-27T10:45:54.873Z,79.60
2018-04-27T10:48:25.011Z,79.60
2018-04-27T10:50:54.934Z,79.40
2018-04-27T10:53:24.702Z,79.50
2018-04-27T10:55:54.497Z,79.80
2018-04-27T10:58:24.242Z,79.90
2018-04-27T11:00:54.030Z,80.60
2018-04-27T11:03:23.917Z,80.80
2018-04-27T11:05:53.783Z,81.30
2018-04-27T11:08:23.787Z,81.60
2018-04-27T11:10:53.840Z,81.70
2018-04-27T11:13:23.925Z,81.10
2018-04-27T11:15:53.885Z,81.40
2018-04-27T11:18:23.872Z,81.30
2018-04-27T11:20:53.629Z,80.90
2018-04-27T11:23:23.485Z,81.20
2018-04-27T11:25:53.346Z,81.80
2018-04-27T11:28:23.228Z,82.90
2018-04-27T11:30:53.873Z,83.50
2018-04-27T11:33:23.757Z,83.50
2018-04-27T11:35:53.477Z,82.80
2018-04-27T11:38:23.269Z,83.10
2018-04-27T11:40:53.046Z,82.70
2018-04-27T11:43:22.848Z,82.50
2018-04-27T11:45:52.614Z,82.20
2018-04-27T11:48:22.537Z,82.10
2018-04-27T11:50:52.354Z,82.60
2018-04-27T11:53:22.301Z,82.70
2018-04-27T11:55:52.158Z,82.50
2018-04-27T11:58:22.300Z,82.50
2018-04-27T12:00:52.432Z,82.60
2018-04-27T12:03:22.335Z,82.70
2018-04-27T12:05:52.346Z,82.50
2018-04-27T12:08:22.178Z,82.80
2018-04-27T12:10:52.156Z,83.00
2018-04-27T12:13:21.933Z,82.80
2018-04-27T12:15:51.931Z,82.60
2018-04-27T12:18:21.852Z,82.80
2018-04-27T12:20:51.670Z,82.70
2018-04-27T12:23:22.184Z,82.70
2018-04-27T12:25:51.970Z,82.70
2018-04-27T12:28:22.119Z,82.80
2018-04-27T12:30:52.042Z,83.30
2018-04-27T12:33:21.850Z,83.00
2018-04-27T12:35:52.402Z,82.60
2018-04-27T12:38:22.233Z,82.60
2018-04-27T12:40:52.038Z,82.70
2018-04-27T12:43:21.845Z,82.90
2018-04-27T12:45:51.821Z,82.80
2018-04-27T12:48:21.670Z,82.60
2018-04-27T12:50:51.470Z,83.00
2018-04-27T12:53:21.306Z,82.70
2018-04-27T12:55:51.741Z,83.00
2018-04-27T12:58:21.975Z,82.50
2018-04-27T13:00:51.768Z,82.60
2018-04-27T13:03:21.539Z,82.40
2018-04-27T13:05:51.384Z,82.80
2018-04-27T13:08:21.532Z,82.80
2018-04-27T13:10:51.328Z,83.40
2018-04-27T13:13:21.130Z,82.50
2018-04-27T13:15:50.977Z,83.30
2018-04-27T13:18:20.762Z,82.80
2018-04-27T13:20:50.607Z,83.00
2018-04-27T13:23:20.474Z,82.50
2018-04-27T13:25:50.300Z,83.00
2018-04-27T13:28:20.363Z,82.90
2018-04-27T13:30:50.150Z,83.00
2018-04-27T13:33:20.000Z,82.80
2018-04-27T13:35:50.950Z,82.30
2018-04-27T13:38:21.642Z,82.70
2018-04-27T13:40:51.556Z,82.70
2018-04-27T13:43:22.813Z,82.30
2018-04-27T13:45:52.623Z,82.20
2018-04-27T13:48:22.571Z,81.90
2018-04-27T13:50:52.396Z,81.30
2018-04-27T13:53:22.323Z,81.70
2018-04-27T13:55:52.201Z,82.10
2018-04-27T13:58:22.104Z,82.10
2018-04-27T14:00:52.472Z,81.60
2018-04-27T14:03:22.532Z,82.20
2018-04-27T14:05:52.279Z,81.90
2018-04-27T14:08:22.069Z,81.50
2018-04-27T14:10:51.930Z,81.10
2018-04-27T14:13:21.816Z,81.60
2018-04-27T14:15:51.570Z,81.50
2018-04-27T14:18:21.581Z,81.40
2018-04-27T14:20:51.490Z,80.50
2018-04-27T14:23:21.317Z,82.10
2018-04-27T14:25:51.470Z,81.90
2018-04-27T14:28:21.305Z,81.30
2018-04-27T14:30:51.321Z,80.70
2018-04-27T14:33:21.151Z,81.30
2018-04-27T14:35:50.993Z,80.40
2018-04-27T14:38:20.978Z,80.60
2018-04-27T14:40:50.751Z,80.60
2018-04-27T14:43:20.565Z,80.40
2018-04-27T14:45:50.354Z,80.60
2018-04-27T14:48:20.209Z,81.20
2018-04-27T14:50:50.066Z,81.00
2018-04-27T14:53:19.948Z,80.90
2018-04-27T14:55:49.803Z,80.80
2018-04-27T14:58:20.311Z,81.10
2018-04-27T15:00:52.498Z,80.80
2018-04-27T15:03:22.863Z,80.20
2018-04-27T15:05:53.223Z,79.70
2018-04-27T15:08:24.318Z,79.60
2018-04-27T15:10:55.006Z,79.60
2018-04-27T15:13:25.536Z,80.40
2018-04-27T15:15:56.093Z,79.80
2018-04-27T15:18:26.437Z,79.90
2018-04-27T15:20:56.613Z,79.70
2018-04-27T15:23:28.524Z,79.90
2018-04-27T15:25:58.377Z,80.70
2018-04-27T15:28:28.149Z,81.10
2018-04-27T15:30:58.012Z,80.40
2018-04-27T15:33:27.802Z,80.00
2018-04-27T15:35:57.736Z,79.70
2018-04-27T15:38:27.532Z,80.30
2018-04-27T15:40:57.356Z,80.60
2018-04-27T15:43:27.141Z,80.40
2018-04-27T15:45:57.011Z,81.80
2018-04-27T15:48:27.466Z,80.80
2018-04-27T15:50:57.176Z,79.30
2018-04-27T15:53:26.990Z,80.00
2018-04-27T15:55:56.821Z,80.30
2018-04-27T15:58:26.561Z,80.20
2018-04-27T16:00:56.298Z,80.10
2018-04-27T16:03:26.190Z,80.40
2018-04-27T16:05:56.014Z,79.40
2018-04-27T16:08:25.862Z,79.70
2018-04-27T16:10:55.621Z,79.10
2018-04-27T16:13:36.054Z,78.80
2018-04-27T16:16:05.817Z,79.00
2018-04-27T16:18:35.690Z,79.10
2018-04-27T16:21:05.522Z,79.70
2018-04-27T16:23:35.284Z,79.00
2018-04-27T16:26:05.081Z,78.90
2018-04-27T16:28:34.857Z,79.10
2018-04-27T16:31:04.664Z,78.10
2018-04-27T16:33:34.568Z,78.00
2018-04-27T16:36:05.649Z,79.50
2018-04-27T16:38:35.551Z,79.00
2018-04-27T16:41:05.563Z,78.90
2018-04-27T16:43:35.490Z,79.10
2018-04-27T16:46:05.283Z,79.50
2018-04-27T16:48:35.078Z,79.30
2018-04-27T16:51:05.053Z,79.10
2018-04-27T16:53:35.409Z,79.20
2018-04-27T16:56:05.798Z,78.70
2018-04-27T16:58:36.560Z,80.30
2018-04-27T17:01:06.458Z,79.70
2018-04-27T17:03:36.486Z,78.80
2018-04-27T17:06:06.295Z,78.90
2018-04-27T17:08:36.131Z,79.40
2018-04-27T17:11:07.538Z,79.70
2018-04-27T17:13:37.487Z,78.90
2018-04-27T17:16:07.296Z,79.40
2018-04-27T17:18:37.225Z,80.00
2018-04-27T17:21:07.260Z,77.70
2018-04-27T17:23:37.120Z,77.70
2018-04-27T17:26:06.944Z,77.40
2018-04-27T17:28:36.871Z,77.50
2018-04-27T17:31:06.867Z,77.10
2018-04-27T17:33:36.710Z,77.40
2018-04-27T17:36:06.595Z,77.50
2018-04-27T17:38:36.451Z,77.40
2018-04-27T17:41:06.215Z,76.30
2018-04-27T17:43:35.968Z,77.00
2018-04-27T17:46:05.784Z,76.20
2018-04-27T17:48:35.706Z,75.20
2018-04-27T17:51:06.455Z,74.60
2018-04-27T17:53:36.216Z,75.30
2018-04-27T17:56:06.864Z,75.50
2018-04-27T17:58:36.673Z,75.50
2018-04-27T18:01:07.044Z,76.00
2018-04-27T18:03:36.842Z,75.50
2018-04-27T18:06:06.716Z,76.60
2018-04-27T18:08:36.521Z,75.10
2018-04-27T18:11:06.349Z,75.70
2018-04-27T18:13:36.413Z,74.40
2018-04-27T18:16:06.340Z,74.10
2018-04-27T18:18:36.298Z,73.50
2018-04-27T18:21:06.370Z,73.00
2018-04-27T18:23:36.380Z,72.70
2018-04-27T18:26:06.144Z,74.00
2018-04-27T18:28:35.912Z,75.90
2018-04-27T18:31:05.810Z,74.90
2018-04-27T18:33:36.014Z,72.40
2018-04-27T18:36:06.057Z,71.60
2018-04-27T18:38:35.900Z,69.60
2018-04-27T18:41:05.750Z,70.50
2018-04-27T18:43:35.605Z,69.60
2018-04-27T18:46:05.571Z,69.60
2018-04-27T18:48:35.828Z,70.60
2018-04-27T18:51:05.801Z,71.10
2018-04-27T18:53:36.866Z,70.00
2018-04-27T18:56:08.097Z,70.00
2018-04-27T18:58:37.923Z,70.00
2018-04-27T19:01:07.731Z,70.80
2018-04-27T19:03:37.588Z,68.30
2018-04-27T19:06:07.902Z,68.10
2018-04-27T19:08:38.084Z,70.30
2018-04-27T19:11:07.880Z,69.10
2018-04-27T19:13:37.675Z,67.30
2018-04-27T19:16:07.495Z,67.70
2018-04-27T19:18:37.507Z,67.80
2018-04-27T19:21:07.562Z,67.80
2018-04-27T19:23:40.420Z,66.70
2018-04-27T19:26:10.442Z,67.00
2018-04-27T19:28:40.250Z,67.90
2018-04-27T19:31:10.179Z,67.80
2018-04-27T19:33:40.025Z,66.40
2018-04-27T19:36:09.840Z,66.90
2018-04-27T19:38:39.677Z,66.70
2018-04-27T19:41:09.652Z,66.80
2018-04-27T19:43:39.429Z,64.40
2018-04-27T19:46:09.416Z,66.70
2018-04-27T19:48:39.476Z,65.50
2018-04-27T19:51:09.517Z,65.10
2018-04-27T19:53:39.477Z,65.60
2018-04-27T19:56:09.373Z,65.60
2018-04-27T19:58:40.221Z,65.20
2018-04-27T20:01:10.444Z,65.20
2018-04-27T20:03:40.345Z,64.90
2018-04-27T20:06:10.141Z,64.60
2018-04-27T20:08:40.512Z,63.50
2018-04-27T20:11:10.565Z,64.20
2018-04-27T20:13:42.223Z,64.00
2018-04-27T20:16:12.063Z,62.90
2018-04-27T20:18:42.014Z,62.50
2018-04-27T20:21:11.781Z,63.20
2018-04-27T20:23:41.625Z,62.80
2018-04-27T20:26:12.601Z,63.50
2018-04-27T20:28:42.760Z,63.50
2018-04-27T20:31:12.672Z,64.20
2018-04-27T20:33:42.710Z,63.50
2018-04-27T20:36:12.524Z,65.10
2018-04-27T20:38:43.134Z,64.90
2018-04-27T20:41:17.004Z,64.90
2018-04-27T20:43:47.195Z,64.00
2018-04-27T20:46:19.144Z,63.50
2018-04-27T20:48:49.429Z,63.50
2018-04-27T20:51:22.194Z,63.40
2018-04-27T20:53:53.153Z,62.60
2018-04-27T20:56:24.314Z,62.30
2018-04-27T20:58:54.630Z,61.50
2018-04-27T21:01:24.828Z,63.20
2018-04-27T21:03:56.992Z,62.10
2018-04-27T21:06:27.387Z,62.20
2018-04-27T21:08:57.204Z,63.10
2018-04-27T21:11:28.457Z,62.90
2018-04-27T21:13:58.238Z,63.00
2018-04-27T21:16:28.081Z,63.70
2018-04-27T21:18:57.949Z,63.40
2018-04-27T21:21:27.911Z,64.20
2018-04-27T21:23:57.812Z,65.00
2018-04-27T21:26:29.962Z,66.00
2018-04-27T21:29:00.173Z,65.40
2018-04-27T21:31:30.126Z,65.40
2018-04-27T21:34:00.911Z,65.40
2018-04-27T21:36:32.092Z,65.40
2018-04-27T21:42:10.894Z,65.40
2018-04-27T21:44:46.469Z,64.10
2018-04-27T21:47:35.007Z,63.90
2018-04-27T21:50:08.945Z,64.00
2018-04-27T21:52:57.317Z,63.50
2018-04-27T21:55:27.860Z,63.00
2018-04-27T21:58:08.105Z,62.90
2018-04-27T22:00:37.950Z,64.50
2018-04-27T22:03:16.478Z,65.00
2018-04-27T22:06:06.712Z,64.40
2018-04-27T22:08:54.495Z,65.50
2018-04-27T22:11:30.572Z,64.80
2018-04-27T22:14:00.346Z,63.50
2018-04-27T22:16:46.588Z,64.90
2018-04-27T22:19:17.932Z,64.60
2018-04-27T22:21:48.885Z,63.70
2018-04-27T22:24:37.107Z,63.50
2018-04-27T22:27:08.288Z,64.30
2018-04-27T22:29:52.112Z,64.60
2018-04-27T22:32:26.027Z,64.90
2018-04-27T22:34:59.074Z,63.30
2018-04-27T22:37:30.112Z,59.70
2018-04-27T22:40:08.628Z,59.70
2018-04-27T22:42:57.048Z,59.00
2018-04-27T22:45:31.688Z,58.80
2018-04-27T22:48:30.693Z,58.50
2018-04-27T22:51:01.013Z,59.20
2018-04-27T22:53:51.271Z,59.50
2018-04-27T22:56:36.837Z,60.60
2018-04-27T22:59:07.016Z,60.10
2018-04-27T23:01:36.788Z,59.90
2018-04-27T23:04:06.863Z,61.10
2018-04-27T23:06:36.817Z,61.50
2018-04-27T23:09:07.544Z,60.30
2018-04-27T23:11:38.544Z,61.70
2018-04-27T23:14:08.640Z,60.80
2018-04-27T23:16:38.438Z,59.90
2018-04-27T23:19:10.149Z,61.10
2018-04-27T23:21:40.333Z,61.10
2018-04-27T23:24:11.275Z,60.60
2018-04-27T23:26:41.867Z,60.30
2018-04-27T23:29:11.723Z,60.10
2018-04-27T23:31:43.812Z,59.70
2018-04-27T23:34:13.711Z,60.70
2018-04-27T23:36:43.470Z,60.90
2018-04-27T23:39:13.557Z,59.20
2018-04-27T23:41:43.585Z,60.20
2018-04-27T23:44:13.950Z,61.10
2018-04-27T23:46:44.061Z,59.60
2018-04-27T23:49:14.191Z,59.40
2018-04-27T23:51:44.452Z,59.00
2018-04-27T23:54:14.676Z,59.70
2018-04-27T23:56:45.700Z,59.00
2018-04-27T23:59:18.623Z,59.30
